Terminal Aerodrome Forecast
Issued by NWS

Home | Current Version | Previous Version | Text Only | Print | Product List | Glossary On
Versions: 1 2 3 4 5 6 7 8 9 10 11 12 13 14 15 16 17 18 19
000
FTUS41 KLWX 191720
TAFMTN
TAF
KMTN 191720Z 1918/2018 29006KT P6SM SCT025 BKN200
     FM192300 VRB03KT P6SM FEW025 SCT250
     FM200900 VRB03KT P6SM SCT015 OVC060
     FM201300 12005KT P6SM SCT003 OVC020
     FM201500 12005KT 3SM -RA SCT010 OVC020
     FM201700 13005KT 2SM -RA SCT003 OVC020=

USA.gov is the U.S. government's official web portal to all federal, state and local government web resources and services.